createdAt,value
2018-11-02T00:00:31.929Z,54.50
2018-11-02T00:03:03.411Z,55.50
2018-11-02T00:05:39.806Z,55.90
2018-11-02T00:08:16.909Z,56.20
2018-11-02T00:11:04.704Z,56.70
2018-11-02T00:13:36.688Z,57.00
2018-11-02T00:16:08.960Z,56.50
2018-11-02T00:18:40.895Z,56.60
2018-11-02T00:21:13.471Z,56.90
2018-11-02T00:23:45.483Z,57.60
2018-11-02T00:26:17.589Z,57.60
2018-11-02T00:28:49.478Z,58.60
2018-11-02T00:31:22.082Z,58.70
2018-11-02T00:33:54.598Z,59.30
2018-11-02T00:36:26.316Z,59.60
2018-11-02T00:38:57.958Z,59.60
2018-11-02T00:41:29.676Z,59.40
2018-11-02T00:44:01.658Z,59.20
2018-11-02T00:49:09.828Z,58.50
2018-11-02T00:51:41.764Z,58.40
2018-11-02T00:56:50.281Z,57.20
2018-11-02T00:59:22.038Z,57.30
2018-11-02T01:01:54.779Z,57.10
2018-11-02T01:04:26.679Z,57.00
2018-11-02T01:06:58.548Z,56.90
2018-11-02T01:09:30.934Z,56.90
2018-11-02T01:12:03.133Z,56.80
2018-11-02T01:14:35.331Z,56.90
2018-11-02T01:17:07.617Z,56.80
2018-11-02T01:19:39.915Z,56.60
2018-11-02T01:22:11.888Z,56.80
2018-11-02T01:24:43.724Z,56.70
2018-11-02T01:27:15.578Z,56.80
2018-11-02T01:29:47.370Z,57.20
2018-11-02T01:32:20.083Z,56.80
2018-11-02T01:34:52.292Z,56.80
2018-11-02T01:37:24.027Z,56.50
2018-11-02T01:39:56.080Z,56.70
2018-11-02T01:42:28.034Z,56.60
2018-11-02T01:44:59.911Z,56.50
2018-11-02T01:47:32.006Z,56.20
2018-11-02T01:50:03.692Z,56.30
2018-11-02T01:52:35.712Z,56.30
2018-11-02T01:55:08.673Z,56.30
2018-11-02T01:57:40.958Z,56.20
2018-11-02T02:00:13.153Z,56.30
2018-11-02T02:02:45.268Z,56.40
2018-11-02T02:05:17.487Z,56.50
2018-11-02T02:07:49.236Z,56.60
2018-11-02T02:10:21.654Z,56.30
2018-11-02T02:12:53.448Z,55.90
2018-11-02T02:15:25.878Z,56.20
2018-11-02T02:17:57.752Z,56.00
2018-11-02T02:20:29.655Z,56.00
2018-11-02T02:23:01.807Z,55.40
2018-11-02T02:25:34.099Z,55.70
2018-11-02T02:28:07.511Z,55.30
2018-11-02T02:30:39.649Z,55.60
2018-11-02T02:33:12.198Z,55.20
2018-11-02T02:38:24.197Z,55.10
2018-11-02T02:40:55.965Z,54.60
2018-11-02T02:43:28.045Z,54.60
2018-11-02T02:45:59.956Z,54.30
2018-11-02T02:48:32.650Z,54.00
2018-11-02T02:51:04.480Z,54.60
2018-11-02T02:53:36.473Z,54.40
2018-11-02T02:56:08.536Z,54.90
2018-11-02T02:58:40.217Z,54.90
2018-11-02T03:01:12.049Z,54.20
2018-11-02T03:03:44.908Z,53.90
2018-11-02T03:08:52.907Z,54.60
2018-11-02T03:11:32.183Z,55.80
2018-11-02T03:14:04.801Z,55.10
2018-11-02T03:16:36.759Z,54.90
2018-11-02T03:19:08.811Z,55.20
2018-11-02T03:21:41.025Z,55.40
2018-11-02T03:24:14.340Z,55.90
2018-11-02T03:26:46.325Z,55.90
2018-11-02T03:29:18.028Z,56.30
2018-11-02T03:31:50.228Z,56.40
2018-11-02T03:34:22.232Z,56.80
2018-11-02T03:36:54.616Z,57.20
2018-11-02T03:39:26.499Z,57.50
2018-11-02T03:41:58.605Z,57.40
2018-11-02T03:44:30.430Z,57.20
2018-11-02T03:47:02.383Z,58.40
2018-11-02T03:49:38.730Z,59.70
2018-11-02T03:52:10.757Z,61.00
2018-11-02T03:54:42.917Z,60.30
2018-11-02T03:57:14.801Z,61.60
2018-11-02T03:59:47.107Z,61.70
2018-11-02T04:02:19.445Z,63.40
2018-11-02T04:04:51.618Z,65.10
2018-11-02T04:07:23.569Z,65.10
2018-11-02T04:09:55.886Z,66.60
2018-11-02T04:12:28.044Z,67.60
2018-11-02T04:15:00.096Z,68.60
2018-11-02T04:17:32.151Z,68.10
2018-11-02T04:20:04.877Z,69.20
2018-11-02T04:22:36.573Z,68.90
2018-11-02T04:25:08.876Z,69.30
2018-11-02T04:27:45.525Z,70.20
2018-11-02T04:30:18.022Z,70.60
2018-11-02T04:32:50.137Z,71.30
2018-11-02T04:35:21.966Z,70.90
2018-11-02T04:40:30.419Z,71.50
2018-11-02T04:43:02.359Z,71.50
2018-11-02T04:45:40.162Z,71.80
2018-11-02T04:48:12.948Z,71.00
2018-11-02T04:50:45.089Z,70.40
2018-11-02T04:53:17.384Z,69.90
2018-11-02T04:55:49.334Z,70.50
2018-11-02T04:58:21.231Z,70.30
2018-11-02T05:00:53.277Z,70.40
2018-11-02T05:03:25.083Z,70.40
2018-11-02T05:05:57.871Z,70.50
2018-11-02T05:08:30.984Z,70.40
2018-11-02T05:11:02.949Z,70.70
2018-11-02T05:13:35.088Z,70.80
2018-11-02T05:16:07.521Z,71.90
2018-11-02T05:18:39.861Z,72.00
2018-11-02T05:21:12.105Z,72.50
2018-11-02T05:23:44.473Z,72.00
2018-11-02T05:26:16.741Z,71.40
2018-11-02T05:28:48.647Z,71.70
2018-11-02T05:31:20.464Z,71.60
2018-11-02T05:33:52.765Z,71.60
2018-11-02T05:36:25.074Z,72.00
2018-11-02T05:38:57.345Z,72.70
2018-11-02T05:41:29.551Z,72.30
2018-11-02T05:44:02.099Z,72.50
2018-11-02T05:46:34.265Z,73.10
2018-11-02T05:49:06.700Z,73.40
2018-11-02T05:54:16.599Z,74.40
2018-11-02T05:56:48.488Z,74.70
2018-11-02T05:59:21.861Z,75.10
2018-11-02T06:01:53.563Z,75.20
2018-11-02T06:04:26.021Z,75.80
2018-11-02T06:06:58.074Z,75.80
2018-11-02T06:09:31.506Z,75.70
2018-11-02T06:12:04.200Z,75.20
2018-11-02T06:14:36.889Z,75.10
2018-11-02T06:17:08.640Z,75.90
2018-11-02T06:19:40.775Z,74.80
2018-11-02T06:22:13.162Z,77.30
2018-11-02T06:27:22.381Z,81.40
2018-11-02T06:29:54.326Z,81.10
2018-11-02T06:32:26.817Z,80.50
2018-11-02T06:34:58.815Z,79.20
2018-11-02T06:37:30.783Z,78.80
2018-11-02T06:40:02.796Z,78.70
2018-11-02T06:42:34.449Z,77.40
2018-11-02T06:45:07.791Z,77.60
2018-11-02T06:47:40.050Z,77.30
2018-11-02T06:50:12.654Z,77.30
2018-11-02T06:52:44.479Z,77.70
2018-11-02T06:55:16.707Z,77.10
2018-11-02T07:00:25.186Z,77.30
2018-11-02T07:02:57.140Z,77.10
2018-11-02T07:05:32.562Z,76.70
2018-11-02T07:08:05.232Z,77.10
2018-11-02T07:10:37.448Z,76.50
2018-11-02T07:13:10.283Z,76.10
2018-11-02T07:15:42.243Z,76.20
2018-11-02T07:18:14.351Z,75.50
2018-11-02T07:20:46.715Z,75.40
2018-11-02T07:23:19.078Z,75.10
2018-11-02T07:25:51.768Z,75.50
2018-11-02T07:28:24.166Z,74.90
2018-11-02T07:30:56.590Z,75.30
2018-11-02T07:33:28.866Z,75.10
2018-11-02T07:36:03.044Z,75.60
2018-11-02T07:38:35.299Z,75.60
2018-11-02T07:41:13.540Z,75.30
2018-11-02T07:46:21.803Z,76.00
2018-11-02T07:48:54.116Z,76.70
2018-11-02T07:51:27.172Z,75.40
2018-11-02T07:53:59.487Z,76.10
2018-11-02T07:56:32.227Z,75.10
2018-11-02T07:59:04.349Z,74.40
2018-11-02T08:01:36.808Z,74.40
2018-11-02T08:04:09.059Z,74.40
2018-11-02T08:06:41.343Z,74.60
2018-11-02T08:11:49.896Z,74.20
2018-11-02T08:16:58.447Z,74.20
2018-11-02T08:19:30.855Z,74.20
2018-11-02T08:22:03.227Z,73.20
2018-11-02T08:24:35.772Z,72.40
2018-11-02T08:27:08.059Z,72.00
2018-11-02T08:29:40.298Z,71.80
2018-11-02T08:32:12.838Z,72.00
2018-11-02T08:37:21.367Z,71.10
2018-11-02T08:39:57.693Z,72.30
2018-11-02T08:42:30.307Z,72.30
2018-11-02T08:45:02.474Z,71.70
2018-11-02T08:47:35.140Z,71.20
2018-11-02T08:50:08.558Z,70.60
2018-11-02T08:52:40.847Z,70.10
2018-11-02T08:57:49.366Z,69.60
2018-11-02T09:00:21.819Z,69.40
2018-11-02T09:02:54.147Z,68.90
2018-11-02T09:05:26.248Z,68.70
2018-11-02T09:07:59.252Z,67.80
2018-11-02T09:10:31.268Z,67.80
2018-11-02T09:13:03.123Z,67.10
2018-11-02T09:15:35.018Z,67.00
2018-11-02T09:18:06.746Z,66.80
2018-11-02T09:20:39.176Z,66.40
2018-11-02T09:23:11.983Z,66.20
2018-11-02T09:28:19.773Z,66.60
2018-11-02T09:30:54.371Z,66.50
2018-11-02T09:33:26.288Z,66.60
2018-11-02T09:35:58.308Z,66.00
2018-11-02T09:38:30.264Z,65.70
2018-11-02T09:41:02.404Z,65.30
2018-11-02T09:43:34.083Z,66.00
2018-11-02T09:46:07.265Z,65.80
2018-11-02T09:48:39.603Z,65.40
2018-11-02T09:51:11.218Z,65.10
2018-11-02T09:53:43.130Z,64.80
2018-11-02T09:58:51.127Z,63.60
2018-11-02T10:01:24.240Z,63.20
2018-11-02T10:06:32.470Z,62.20
2018-11-02T10:09:04.671Z,61.70
2018-11-02T10:11:36.645Z,61.40
2018-11-02T10:14:08.724Z,62.50
2018-11-02T10:16:41.148Z,62.20
2018-11-02T10:19:12.930Z,61.70
2018-11-02T10:24:21.039Z,61.80
2018-11-02T10:26:53.755Z,62.00
2018-11-02T10:29:25.743Z,61.90
2018-11-02T10:31:57.741Z,60.30
2018-11-02T10:34:30.367Z,60.60
2018-11-02T10:37:03.006Z,61.60
2018-11-02T10:42:12.114Z,60.60
2018-11-02T10:44:45.952Z,60.20
2018-11-02T10:47:18.011Z,59.40
2018-11-02T10:49:49.639Z,59.30
2018-11-02T10:52:21.420Z,59.20
2018-11-02T10:54:53.973Z,59.00
2018-11-02T10:57:26.274Z,58.10
2018-11-02T10:59:58.033Z,59.10
2018-11-02T11:02:34.948Z,59.10
2018-11-02T11:05:09.349Z,58.60
2018-11-02T11:07:41.899Z,59.10
2018-11-02T11:10:13.721Z,59.70
2018-11-02T11:12:45.892Z,58.80
2018-11-02T11:15:20.837Z,58.80
2018-11-02T11:17:52.887Z,58.10
2018-11-02T11:20:24.879Z,58.70
2018-11-02T11:22:57.656Z,58.30
2018-11-02T11:25:30.342Z,58.40
2018-11-02T11:28:02.369Z,58.20
2018-11-02T11:30:34.373Z,58.00
2018-11-02T11:33:06.824Z,57.80
2018-11-02T11:35:38.835Z,57.60
2018-11-02T11:38:10.916Z,57.50
2018-11-02T11:40:42.793Z,57.50
2018-11-02T11:43:14.772Z,57.60
2018-11-02T11:45:46.431Z,57.30
2018-11-02T11:48:18.456Z,56.10
2018-11-02T11:50:51.049Z,53.90
2018-11-02T11:53:23.078Z,52.60
2018-11-02T11:55:55.132Z,52.60
2018-11-02T11:58:27.148Z,54.50
2018-11-02T12:00:58.980Z,51.70
2018-11-02T12:03:30.856Z,49.50
2018-11-02T12:06:02.638Z,47.30
2018-11-02T12:08:35.414Z,48.30
2018-11-02T12:11:07.550Z,45.80
2018-11-02T12:13:39.440Z,43.30
2018-11-02T12:16:11.284Z,41.30
2018-11-02T12:21:22.137Z,37.00
2018-11-02T12:23:54.713Z,40.10
2018-11-02T12:26:27.496Z,37.70
2018-11-02T12:28:59.910Z,39.10
2018-11-02T12:31:31.592Z,42.10
2018-11-02T12:34:04.625Z,42.80
2018-11-02T12:39:13.495Z,43.20
2018-11-02T12:44:21.572Z,40.70
2018-11-02T12:46:55.221Z,41.90
2018-11-02T12:49:28.254Z,43.80
2018-11-02T12:51:59.971Z,45.00
2018-11-02T12:54:32.467Z,45.50
2018-11-02T12:57:04.303Z,47.10
2018-11-02T12:59:36.034Z,45.40
2018-11-02T13:02:08.391Z,45.60
2018-11-02T13:04:39.983Z,45.00
2018-11-02T13:07:11.847Z,45.80
2018-11-02T13:09:43.640Z,45.10
2018-11-02T13:14:52.676Z,46.70
2018-11-02T13:17:24.552Z,48.90
2018-11-02T13:19:56.394Z,48.60
2018-11-02T13:22:28.623Z,48.50
2018-11-02T13:25:00.519Z,48.80
2018-11-02T13:27:33.433Z,48.70
2018-11-02T13:30:06.034Z,49.30
2018-11-02T13:32:38.142Z,49.70
2018-11-02T13:35:14.469Z,49.90
2018-11-02T13:37:46.567Z,50.70
2018-11-02T13:40:19.231Z,50.90
2018-11-02T13:42:51.734Z,51.00
2018-11-02T13:45:23.692Z,51.00
2018-11-02T13:47:55.856Z,51.80
2018-11-02T13:50:27.379Z,51.90
2018-11-02T13:52:59.362Z,51.90
2018-11-02T13:55:31.507Z,52.40
2018-11-02T13:58:03.228Z,53.00
2018-11-02T14:00:35.997Z,53.20
2018-11-02T14:03:08.047Z,53.40
2018-11-02T14:05:40.085Z,53.70
2018-11-02T14:08:11.915Z,54.30
2018-11-02T14:10:43.976Z,54.60
2018-11-02T14:13:16.108Z,54.70
2018-11-02T14:15:48.125Z,55.30
2018-11-02T14:18:19.883Z,55.50
2018-11-02T14:20:52.001Z,55.20
2018-11-02T14:23:24.025Z,55.40
2018-11-02T14:25:56.837Z,55.50
2018-11-02T14:28:28.904Z,55.40
2018-11-02T14:31:00.671Z,55.50
2018-11-02T14:33:32.508Z,56.30
2018-11-02T14:36:04.974Z,56.20
2018-11-02T14:38:36.787Z,56.50
2018-11-02T14:41:08.582Z,56.70
2018-11-02T14:43:40.368Z,57.00
2018-11-02T14:46:12.457Z,57.40
2018-11-02T14:48:44.781Z,57.80
2018-11-02T14:51:16.705Z,58.00
2018-11-02T14:53:48.943Z,59.40
2018-11-02T14:56:20.520Z,58.80
2018-11-02T14:58:52.084Z,59.80
2018-11-02T15:01:23.994Z,59.60
2018-11-02T15:03:55.500Z,60.90
2018-11-02T15:06:27.695Z,61.10
2018-11-02T15:08:59.646Z,61.00
2018-11-02T15:11:31.985Z,61.90
2018-11-02T15:14:04.332Z,61.50
2018-11-02T15:16:36.066Z,61.70
2018-11-02T15:19:08.165Z,62.30
2018-11-02T15:21:39.765Z,63.30
2018-11-02T15:24:11.691Z,62.90
2018-11-02T15:26:43.577Z,63.30
2018-11-02T15:29:15.364Z,64.20
2018-11-02T15:31:46.949Z,64.20
2018-11-02T15:34:18.849Z,64.20
2018-11-02T15:36:50.612Z,64.00
2018-11-02T15:39:22.724Z,65.30
2018-11-02T15:44:31.321Z,65.80
2018-11-02T15:47:02.839Z,65.50
2018-11-02T15:49:42.899Z,65.20
2018-11-02T15:52:15.716Z,65.50
2018-11-02T15:54:47.544Z,65.80
2018-11-02T15:57:19.361Z,66.60
2018-11-02T15:59:50.935Z,66.60
2018-11-02T16:02:22.579Z,67.90
2018-11-02T16:04:54.501Z,69.20
2018-11-02T16:07:26.175Z,69.70
2018-11-02T16:09:58.186Z,70.30
2018-11-02T16:12:30.366Z,70.70
2018-11-02T16:15:02.067Z,70.90
2018-11-02T16:17:33.559Z,70.40
2018-11-02T16:20:12.589Z,70.00
2018-11-02T16:22:44.709Z,70.80
2018-11-02T16:25:17.486Z,72.40
2018-11-02T16:27:49.909Z,72.40
2018-11-02T16:30:22.083Z,72.70
2018-11-02T16:32:54.180Z,73.10
2018-11-02T16:35:26.622Z,73.10
2018-11-02T16:37:59.875Z,73.20
2018-11-02T16:40:31.611Z,73.30
2018-11-02T16:43:06.453Z,73.30
2018-11-02T16:45:38.747Z,73.80
2018-11-02T16:48:12.591Z,74.30
2018-11-02T16:50:44.348Z,75.00
2018-11-02T16:53:16.521Z,75.20
2018-11-02T16:55:48.733Z,75.20
2018-11-02T16:58:20.368Z,76.00
2018-11-02T17:00:52.531Z,76.40
2018-11-02T17:03:24.460Z,77.40
2018-11-02T17:06:01.950Z,77.00
2018-11-02T17:08:39.143Z,77.20
2018-11-02T17:11:16.459Z,77.20
2018-11-02T17:13:54.465Z,77.70
2018-11-02T17:16:32.361Z,77.60
2018-11-02T17:19:14.140Z,78.40
2018-11-02T17:21:51.538Z,78.70
2018-11-02T17:24:28.564Z,78.70
2018-11-02T17:27:06.553Z,78.60
2018-11-02T17:29:43.483Z,77.90
2018-11-02T17:32:20.842Z,78.10
2018-11-02T17:34:58.023Z,79.00
2018-11-02T17:37:35.462Z,79.30
2018-11-02T17:40:14.350Z,80.10
2018-11-02T17:42:51.438Z,80.50
2018-11-02T17:45:28.642Z,80.70
2018-11-02T17:48:07.041Z,81.20
2018-11-02T17:50:43.963Z,81.10
2018-11-02T17:53:21.757Z,81.20
2018-11-02T17:55:59.038Z,80.90
2018-11-02T17:58:36.211Z,81.50
2018-11-02T18:03:50.209Z,80.90
2018-11-02T18:06:28.439Z,81.10
2018-11-02T18:09:10.256Z,80.30
2018-11-02T18:11:47.608Z,81.20
2018-11-02T18:14:24.457Z,81.30
2018-11-02T18:17:02.210Z,80.60
2018-11-02T18:19:39.375Z,80.50
2018-11-02T18:22:16.796Z,81.30
2018-11-02T18:24:57.973Z,81.40
2018-11-02T18:27:39.443Z,81.80
2018-11-02T18:30:17.829Z,81.10
2018-11-02T18:32:56.596Z,81.10
2018-11-02T18:35:36.816Z,81.50
2018-11-02T18:38:17.364Z,82.30
2018-11-02T18:40:55.973Z,81.70
2018-11-02T18:49:00.754Z,83.00
2018-11-02T18:51:40.413Z,82.90
2018-11-02T18:54:21.899Z,82.80
2018-11-02T18:57:01.987Z,82.80
2018-11-02T19:02:17.916Z,83.40
2018-11-02T19:04:59.406Z,83.70
2018-11-02T19:07:37.611Z,83.40
2018-11-02T19:10:18.456Z,83.20
2018-11-02T19:12:57.951Z,82.90
2018-11-02T19:18:24.122Z,83.70
2018-11-02T19:21:03.068Z,83.60
2018-11-02T19:23:41.538Z,83.40
2018-11-02T19:28:56.853Z,83.60
2018-11-02T19:31:36.386Z,83.40
2018-11-02T19:36:51.017Z,83.40
2018-11-02T19:39:30.999Z,83.40
2018-11-02T19:42:11.193Z,83.50
2018-11-02T19:44:54.214Z,83.40
2018-11-02T19:50:19.081Z,83.60
2018-11-02T19:52:59.334Z,83.40
2018-11-02T19:55:39.364Z,83.50
2018-11-02T19:58:19.869Z,83.70
2018-11-02T20:00:58.905Z,83.40
2018-11-02T20:06:15.875Z,83.60
2018-11-02T20:08:57.020Z,83.40
2018-11-02T20:14:13.648Z,83.70
2018-11-02T20:16:53.066Z,84.30
2018-11-02T20:19:33.377Z,84.10
2018-11-02T20:22:12.843Z,83.80
2018-11-02T20:24:52.155Z,84.20
2018-11-02T20:27:31.395Z,84.10
2018-11-02T20:30:21.297Z,84.10
2018-11-02T20:33:01.980Z,84.60
2018-11-02T20:35:45.832Z,85.10
2018-11-02T20:38:24.566Z,85.30
2018-11-02T20:41:03.918Z,85.30
2018-11-02T20:43:53.789Z,85.00
2018-11-02T20:46:34.112Z,85.10
2018-11-02T20:51:53.471Z,85.10
2018-11-02T21:00:01.466Z,85.80
2018-11-02T21:02:42.386Z,85.10
2018-11-02T21:07:58.854Z,85.00
2018-11-02T21:10:39.995Z,84.90
2018-11-02T21:15:57.779Z,85.00
2018-11-02T21:21:18.972Z,85.10
2018-11-02T21:26:35.944Z,84.80
2018-11-02T21:29:17.270Z,84.70
2018-11-02T21:31:56.346Z,84.60
2018-11-02T21:37:11.880Z,84.40
2018-11-02T21:39:58.118Z,84.40
2018-11-02T21:42:38.227Z,84.40
2018-11-02T21:45:19.875Z,84.60
2018-11-02T21:48:00.045Z,84.90
2018-11-02T21:50:39.352Z,85.30
2018-11-02T21:53:18.176Z,85.50
2018-11-02T21:55:55.944Z,85.50
2018-11-02T21:58:32.955Z,85.60
2018-11-02T22:01:09.971Z,85.90
2018-11-02T22:03:47.819Z,86.00
2018-11-02T22:06:25.685Z,86.00
2018-11-02T22:09:08.799Z,86.70
2018-11-02T22:11:46.895Z,86.90
2018-11-02T22:14:24.011Z,87.10
2018-11-02T22:17:01.243Z,87.00
2018-11-02T22:19:38.598Z,87.50
2018-11-02T22:22:15.860Z,88.20
2018-11-02T22:24:53.435Z,88.50
2018-11-02T22:27:30.560Z,87.90
2018-11-02T22:30:14.422Z,88.50
2018-11-02T22:32:51.611Z,88.20
2018-11-02T22:35:28.814Z,88.00
2018-11-02T22:38:06.386Z,88.00
2018-11-02T22:40:43.673Z,88.30
2018-11-02T22:43:21.701Z,87.90
2018-11-02T22:45:59.165Z,87.90
2018-11-02T22:48:36.965Z,88.10
2018-11-02T22:51:14.744Z,88.50
2018-11-02T22:53:52.564Z,89.10
2018-11-02T22:56:29.880Z,89.80
2018-11-02T22:59:06.797Z,90.20
2018-11-02T23:01:43.836Z,90.10
2018-11-02T23:04:20.889Z,90.20
2018-11-02T23:07:02.427Z,90.00
2018-11-02T23:09:39.812Z,90.20
2018-11-02T23:14:53.240Z,89.50
2018-11-02T23:17:30.067Z,90.00
2018-11-02T23:20:10.770Z,90.00
2018-11-02T23:22:47.728Z,90.40
2018-11-02T23:25:24.861Z,90.50
2018-11-02T23:28:01.799Z,90.80
2018-11-02T23:30:38.762Z,90.60
2018-11-02T23:33:16.284Z,90.60
2018-11-02T23:35:53.570Z,90.40
2018-11-02T23:38:32.398Z,90.50
2018-11-02T23:41:09.781Z,90.40
2018-11-02T23:43:47.135Z,90.70
2018-11-02T23:49:00.726Z,91.30
2018-11-02T23:51:37.785Z,91.70
2018-11-02T23:54:16.046Z,92.00
2018-11-02T23:56:53.847Z,92.20
2018-11-02T23:59:30.991Z,92.40
